ROKJ(METAR)
12/11 18:00
ROKJ 110900Z 23007KT 4000 RA FEW004 SCT020 BKN038 22/21 Q1014 RMK
A2996=
戻る
トップページへ戻る
IMOC Co,.Ltd.